sensor_id;sensor_type;location;lat;lon;timestamp;P1;durP1;ratioP1;P2;durP2;ratioP2
8885;SDS011;4479;51.162;13.906;2023-02-24T00:08:06;29.90;;;18.07;;
8885;SDS011;4479;51.162;13.906;2023-02-24T00:18:09;29.50;;;17.80;;
8885;SDS011;4479;51.162;13.906;2023-02-24T00:28:11;26.33;;;17.03;;
8885;SDS011;4479;51.162;13.906;2023-02-24T00:38:17;26.87;;;17.77;;
8885;SDS011;4479;51.162;13.906;2023-02-24T00:48:19;28.53;;;18.03;;
8885;SDS011;4479;51.162;13.906;2023-02-24T00:58:22;29.37;;;17.30;;
8885;SDS011;4479;51.162;13.906;2023-02-24T01:08:29;22.57;;;15.70;;
8885;SDS011;4479;51.162;13.906;2023-02-24T01:18:36;19.23;;;13.70;;
8885;SDS011;4479;51.162;13.906;2023-02-24T01:28:38;19.17;;;13.30;;
8885;SDS011;4479;51.162;13.906;2023-02-24T01:38:42;15.00;;;10.60;;
8885;SDS011;4479;51.162;13.906;2023-02-24T01:48:45;15.37;;;9.37;;
8885;SDS011;4479;51.162;13.906;2023-02-24T01:58:49;11.27;;;8.20;;
8885;SDS011;4479;51.162;13.906;2023-02-24T02:08:52;11.03;;;7.83;;
8885;SDS011;4479;51.162;13.906;2023-02-24T02:18:58;12.70;;;8.80;;
8885;SDS011;4479;51.162;13.906;2023-02-24T02:29:38;13.07;;;9.20;;
8885;SDS011;4479;51.162;13.906;2023-02-24T02:40:11;12.87;;;9.23;;
8885;SDS011;4479;51.162;13.906;2023-02-24T02:50:22;13.83;;;9.70;;
8885;SDS011;4479;51.162;13.906;2023-02-24T03:00:31;12.30;;;8.80;;
8885;SDS011;4479;51.162;13.906;2023-02-24T03:10:36;10.37;;;7.40;;
8885;SDS011;4479;51.162;13.906;2023-02-24T03:20:46;12.77;;;7.83;;
8885;SDS011;4479;51.162;13.906;2023-02-24T03:30:52;11.03;;;7.37;;
8885;SDS011;4479;51.162;13.906;2023-02-24T03:41:04;14.03;;;8.40;;
8885;SDS011;4479;51.162;13.906;2023-02-24T03:51:12;13.83;;;8.77;;
8885;SDS011;4479;51.162;13.906;2023-02-24T04:01:23;16.27;;;9.60;;
8885;SDS011;4479;51.162;13.906;2023-02-24T04:11:35;13.20;;;7.87;;
8885;SDS011;4479;51.162;13.906;2023-02-24T04:21:44;13.70;;;7.40;;
8885;SDS011;4479;51.162;13.906;2023-02-24T04:31:55;13.60;;;7.43;;
8885;SDS011;4479;51.162;13.906;2023-02-24T04:42:03;12.53;;;7.17;;
8885;SDS011;4479;51.162;13.906;2023-02-24T04:52:06;12.17;;;6.87;;
8885;SDS011;4479;51.162;13.906;2023-02-24T05:02:10;13.07;;;7.00;;
8885;SDS011;4479;51.162;13.906;2023-02-24T05:12:15;12.80;;;6.83;;
8885;SDS011;4479;51.162;13.906;2023-02-24T05:22:18;17.40;;;9.50;;
8885;SDS011;4479;51.162;13.906;2023-02-24T05:32:21;11.23;;;6.37;;
8885;SDS011;4479;51.162;13.906;2023-02-24T05:42:25;7.73;;;3.70;;
8885;SDS011;4479;51.162;13.906;2023-02-24T05:52:34;6.20;;;2.73;;
8885;SDS011;4479;51.162;13.906;2023-02-24T06:02:38;6.07;;;2.23;;
8885;SDS011;4479;51.162;13.906;2023-02-24T06:12:46;7.10;;;4.07;;
8885;SDS011;4479;51.162;13.906;2023-02-24T06:22:50;12.57;;;7.37;;
8885;SDS011;4479;51.162;13.906;2023-02-24T06:32:53;11.20;;;3.70;;
8885;SDS011;4479;51.162;13.906;2023-02-24T06:42:57;15.40;;;6.50;;
8885;SDS011;4479;51.162;13.906;2023-02-24T06:52:59;6.60;;;2.10;;
8885;SDS011;4479;51.162;13.906;2023-02-24T07:03:04;4.57;;;1.70;;
8885;SDS011;4479;51.162;13.906;2023-02-24T07:13:14;5.23;;;1.50;;
8885;SDS011;4479;51.162;13.906;2023-02-24T07:23:18;4.97;;;1.40;;
8885;SDS011;4479;51.162;13.906;2023-02-24T07:33:20;4.17;;;1.57;;
8885;SDS011;4479;51.162;13.906;2023-02-24T07:43:24;6.60;;;2.00;;
8885;SDS011;4479;51.162;13.906;2023-02-24T07:53:26;7.53;;;1.80;;
8885;SDS011;4479;51.162;13.906;2023-02-24T08:03:30;3.87;;;1.50;;
8885;SDS011;4479;51.162;13.906;2023-02-24T08:13:32;4.50;;;1.50;;
8885;SDS011;4479;51.162;13.906;2023-02-24T08:23:37;5.77;;;1.40;;
8885;SDS011;4479;51.162;13.906;2023-02-24T08:33:43;6.50;;;1.47;;
8885;SDS011;4479;51.162;13.906;2023-02-24T08:43:47;6.33;;;1.30;;
8885;SDS011;4479;51.162;13.906;2023-02-24T08:53:50;5.73;;;1.60;;
8885;SDS011;4479;51.162;13.906;2023-02-24T09:03:56;8.23;;;1.50;;
8885;SDS011;4479;51.162;13.906;2023-02-24T09:13:59;6.27;;;1.40;;
8885;SDS011;4479;51.162;13.906;2023-02-24T09:24:05;5.97;;;1.63;;
8885;SDS011;4479;51.162;13.906;2023-02-24T09:34:09;4.40;;;1.93;;
8885;SDS011;4479;51.162;13.906;2023-02-24T09:44:19;5.97;;;1.40;;
8885;SDS011;4479;51.162;13.906;2023-02-24T09:54:28;8.33;;;1.97;;
8885;SDS011;4479;51.162;13.906;2023-02-24T10:04:44;5.17;;;1.97;;
8885;SDS011;4479;51.162;13.906;2023-02-24T10:15:08;4.17;;;2.20;;
8885;SDS011;4479;51.162;13.906;2023-02-24T10:25:26;6.97;;;2.33;;
8885;SDS011;4479;51.162;13.906;2023-02-24T10:36:03;6.43;;;2.30;;
8885;SDS011;4479;51.162;13.906;2023-02-24T10:46:17;6.00;;;2.30;;
8885;SDS011;4479;51.162;13.906;2023-02-24T10:56:25;4.73;;;2.13;;
8885;SDS011;4479;51.162;13.906;2023-02-24T11:06:42;5.47;;;2.50;;
8885;SDS011;4479;51.162;13.906;2023-02-24T11:16:54;5.37;;;3.43;;
8885;SDS011;4479;51.162;13.906;2023-02-24T11:27:17;6.83;;;2.60;;
8885;SDS011;4479;51.162;13.906;2023-02-24T11:37:27;6.40;;;3.57;;
8885;SDS011;4479;51.162;13.906;2023-02-24T11:47:40;5.13;;;3.23;;
8885;SDS011;4479;51.162;13.906;2023-02-24T11:57:47;4.87;;;3.20;;
8885;SDS011;4479;51.162;13.906;2023-02-24T12:07:57;6.37;;;3.80;;
8885;SDS011;4479;51.162;13.906;2023-02-24T12:18:05;5.30;;;4.00;;
8885;SDS011;4479;51.162;13.906;2023-02-24T12:28:17;5.80;;;3.80;;
8885;SDS011;4479;51.162;13.906;2023-02-24T12:38:37;5.53;;;3.73;;
8885;SDS011;4479;51.162;13.906;2023-02-24T12:49:02;6.10;;;3.63;;
8885;SDS011;4479;51.162;13.906;2023-02-24T12:59:21;8.37;;;4.40;;
8885;SDS011;4479;51.162;13.906;2023-02-24T13:09:33;8.10;;;4.47;;
8885;SDS011;4479;51.162;13.906;2023-02-24T13:19:43;8.47;;;4.33;;
8885;SDS011;4479;51.162;13.906;2023-02-24T13:29:48;6.30;;;4.20;;
8885;SDS011;4479;51.162;13.906;2023-02-24T13:39:53;5.80;;;4.13;;
8885;SDS011;4479;51.162;13.906;2023-02-24T13:50:00;8.97;;;4.97;;
8885;SDS011;4479;51.162;13.906;2023-02-24T14:00:22;8.03;;;4.47;;
8885;SDS011;4479;51.162;13.906;2023-02-24T14:10:42;5.47;;;3.87;;
8885;SDS011;4479;51.162;13.906;2023-02-24T14:20:46;7.47;;;4.17;;
8885;SDS011;4479;51.162;13.906;2023-02-24T14:30:52;8.83;;;4.97;;
8885;SDS011;4479;51.162;13.906;2023-02-24T14:40:57;7.83;;;4.80;;
8885;SDS011;4479;51.162;13.906;2023-02-24T14:51:01;6.47;;;4.50;;
8885;SDS011;4479;51.162;13.906;2023-02-24T15:01:13;6.73;;;4.33;;
8885;SDS011;4479;51.162;13.906;2023-02-24T15:11:22;8.70;;;4.37;;
8885;SDS011;4479;51.162;13.906;2023-02-24T15:21:32;7.73;;;4.07;;
8885;SDS011;4479;51.162;13.906;2023-02-24T15:31:46;8.97;;;4.43;;
8885;SDS011;4479;51.162;13.906;2023-02-24T15:41:50;6.30;;;4.00;;
8885;SDS011;4479;51.162;13.906;2023-02-24T15:51:55;8.03;;;4.50;;
8885;SDS011;4479;51.162;13.906;2023-02-24T16:02:07;5.37;;;3.57;;
8885;SDS011;4479;51.162;13.906;2023-02-24T16:12:15;6.50;;;3.60;;
8885;SDS011;4479;51.162;13.906;2023-02-24T16:22:21;7.00;;;4.57;;
8885;SDS011;4479;51.162;13.906;2023-02-24T16:32:25;4.27;;;3.70;;
8885;SDS011;4479;51.162;13.906;2023-02-24T16:42:30;7.07;;;4.47;;
8885;SDS011;4479;51.162;13.906;2023-02-24T17:03:15;7.63;;;5.83;;
8885;SDS011;4479;51.162;13.906;2023-02-24T18:01:00;9.83;;;8.83;;
8885;SDS011;4479;51.162;13.906;2023-02-24T18:11:03;7.53;;;6.77;;
8885;SDS011;4479;51.162;13.906;2023-02-24T18:21:08;4.67;;;3.47;;
8885;SDS011;4479;51.162;13.906;2023-02-24T18:31:11;9.37;;;6.03;;
8885;SDS011;4479;51.162;13.906;2023-02-24T18:41:16;20.87;;;15.30;;
8885;SDS011;4479;51.162;13.906;2023-02-24T18:51:21;17.37;;;14.50;;
8885;SDS011;4479;51.162;13.906;2023-02-24T19:01:27;5.37;;;4.20;;
8885;SDS011;4479;51.162;13.906;2023-02-24T19:11:31;9.73;;;8.57;;
8885;SDS011;4479;51.162;13.906;2023-02-24T19:21:36;31.87;;;24.77;;
8885;SDS011;4479;51.162;13.906;2023-02-24T19:31:38;14.50;;;12.60;;
8885;SDS011;4479;51.162;13.906;2023-02-24T19:41:42;4.00;;;3.60;;
8885;SDS011;4479;51.162;13.906;2023-02-24T19:51:45;2.87;;;2.57;;
8885;SDS011;4479;51.162;13.906;2023-02-24T20:01:49;11.93;;;8.00;;
8885;SDS011;4479;51.162;13.906;2023-02-24T20:11:53;7.73;;;6.33;;
8885;SDS011;4479;51.162;13.906;2023-02-24T20:21:58;4.57;;;3.77;;
8885;SDS011;4479;51.162;13.906;2023-02-24T20:32:01;3.70;;;3.30;;
8885;SDS011;4479;51.162;13.906;2023-02-24T20:42:05;11.77;;;9.73;;
